sensor_id;sensor_type;location;lat;lon;timestamp;pressure;altitude;pressure_sealevel;temperature;humidity
71857;BME280;63344;46.980;28.882;2023-07-20T00:02:10;99958.75;;;21.56;72.13
71857;BME280;63344;46.980;28.882;2023-07-20T00:04:38;99961.00;;;21.60;72.78
71857;BME280;63344;46.980;28.882;2023-07-20T00:07:05;99955.03;;;21.66;74.26
71857;BME280;63344;46.980;28.882;2023-07-20T00:09:33;99955.41;;;21.81;75.82
71857;BME280;63344;46.980;28.882;2023-07-20T00:12:00;99961.50;;;21.83;75.23
71857;BME280;63344;46.980;28.882;2023-07-20T00:14:27;99980.13;;;21.86;75.12
71857;BME280;63344;46.980;28.882;2023-07-20T00:16:56;99979.25;;;21.96;77.32
71857;BME280;63344;46.980;28.882;2023-07-20T00:19:27;99985.91;;;22.01;74.87
71857;BME280;63344;46.980;28.882;2023-07-20T00:21:54;99978.38;;;22.05;73.81
71857;BME280;63344;46.980;28.882;2023-07-20T00:24:23;99983.88;;;22.13;72.91
71857;BME280;63344;46.980;28.882;2023-07-20T00:26:50;99973.28;;;22.20;72.96
71857;BME280;63344;46.980;28.882;2023-07-20T00:29:18;99976.84;;;22.20;72.51
71857;BME280;63344;46.980;28.882;2023-07-20T00:31:45;99989.78;;;22.26;72.11
71857;BME280;63344;46.980;28.882;2023-07-20T00:34:14;99989.78;;;22.26;71.37
71857;BME280;63344;46.980;28.882;2023-07-20T00:36:41;99974.84;;;22.22;71.25
71857;BME280;63344;46.980;28.882;2023-07-20T00:39:09;99967.44;;;22.24;70.96
71857;BME280;63344;46.980;28.882;2023-07-20T00:41:36;99984.09;;;22.30;71.02
71857;BME280;63344;46.980;28.882;2023-07-20T00:44:04;99980.00;;;22.25;70.44
71857;BME280;63344;46.980;28.882;2023-07-20T00:46:32;100000.34;;;22.30;69.83
71857;BME280;63344;46.980;28.882;2023-07-20T00:49:00;100001.16;;;22.30;69.61
71857;BME280;63344;46.980;28.882;2023-07-20T00:51:28;100006.91;;;22.17;69.77
71857;BME280;63344;46.980;28.882;2023-07-20T00:53:55;100002.00;;;22.03;70.41
71857;BME280;63344;46.980;28.882;2023-07-20T00:56:24;99990.53;;;21.91;70.72
71857;BME280;63344;46.980;28.882;2023-07-20T00:58:52;100004.47;;;21.86;71.28
71857;BME280;63344;46.980;28.882;2023-07-20T01:01:21;100003.38;;;21.79;71.99
71857;BME280;63344;46.980;28.882;2023-07-20T01:03:48;99989.03;;;21.69;72.46
71857;BME280;63344;46.980;28.882;2023-07-20T01:06:41;99999.44;;;21.54;73.48
71857;BME280;63344;46.980;28.882;2023-07-20T01:12:07;99989.78;;;21.32;74.88
71857;BME280;63344;46.980;28.882;2023-07-20T01:14:35;99972.75;;;21.22;75.38
71857;BME280;63344;46.980;28.882;2023-07-20T01:17:04;99965.34;;;21.14;75.70
71857;BME280;63344;46.980;28.882;2023-07-20T01:19:31;99963.94;;;21.10;75.93
71857;BME280;63344;46.980;28.882;2023-07-20T01:27:36;99970.50;;;21.07;76.09
71857;BME280;63344;46.980;28.882;2023-07-20T01:32:56;99975.56;;;21.20;75.88
71857;BME280;63344;46.980;28.882;2023-07-20T01:35:28;99962.38;;;21.17;75.92
71857;BME280;63344;46.980;28.882;2023-07-20T01:37:56;99952.56;;;21.16;75.85
71857;BME280;63344;46.980;28.882;2023-07-20T01:40:25;99962.78;;;21.13;76.48
71857;BME280;63344;46.980;28.882;2023-07-20T01:42:53;99963.38;;;21.06;76.50
71857;BME280;63344;46.980;28.882;2023-07-20T01:45:20;99964.25;;;21.07;76.00
71857;BME280;63344;46.980;28.882;2023-07-20T01:47:48;99968.50;;;21.09;75.88
71857;BME280;63344;46.980;28.882;2023-07-20T01:50:15;99962.97;;;21.11;75.97
71857;BME280;63344;46.980;28.882;2023-07-20T01:52:42;99951.16;;;21.02;75.77
71857;BME280;63344;46.980;28.882;2023-07-20T01:55:10;99957.97;;;21.06;75.70
71857;BME280;63344;46.980;28.882;2023-07-20T01:57:38;99946.31;;;21.06;75.15
71857;BME280;63344;46.980;28.882;2023-07-20T02:00:05;99953.44;;;21.07;75.67
71857;BME280;63344;46.980;28.882;2023-07-20T02:02:36;99957.97;;;21.06;75.54
71857;BME280;63344;46.980;28.882;2023-07-20T02:05:03;99938.66;;;21.01;75.35
71857;BME280;63344;46.980;28.882;2023-07-20T02:07:31;99941.94;;;21.05;75.14
71857;BME280;63344;46.980;28.882;2023-07-20T02:09:58;99940.34;;;21.02;74.65
71857;BME280;63344;46.980;28.882;2023-07-20T02:12:26;99947.59;;;21.02;74.46
71857;BME280;63344;46.980;28.882;2023-07-20T02:14:53;99946.06;;;20.99;74.88
71857;BME280;63344;46.980;28.882;2023-07-20T02:17:21;99939.63;;;21.00;74.92
71857;BME280;63344;46.980;28.882;2023-07-20T02:19:52;99940.66;;;20.99;74.50
71857;BME280;63344;46.980;28.882;2023-07-20T02:22:20;99928.13;;;20.98;74.45
71857;BME280;63344;46.980;28.882;2023-07-20T02:24:47;99926.44;;;20.97;74.59
71857;BME280;63344;46.980;28.882;2023-07-20T02:27:15;99932.25;;;20.93;74.41
71857;BME280;63344;46.980;28.882;2023-07-20T02:29:43;99930.69;;;20.90;74.52
71857;BME280;63344;46.980;28.882;2023-07-20T02:32:10;99930.00;;;20.88;74.84
71857;BME280;63344;46.980;28.882;2023-07-20T02:34:38;99938.09;;;20.88;74.91
71857;BME280;63344;46.980;28.882;2023-07-20T02:37:05;99934.25;;;20.81;75.33
71857;BME280;63344;46.980;28.882;2023-07-20T02:39:34;99932.69;;;20.78;75.86
71857;BME280;63344;46.980;28.882;2023-07-20T02:42:02;99931.28;;;20.74;75.86
71857;BME280;63344;46.980;28.882;2023-07-20T02:44:29;99925.47;;;20.69;75.89
71857;BME280;63344;46.980;28.882;2023-07-20T02:46:57;99929.72;;;20.72;76.45
71857;BME280;63344;46.980;28.882;2023-07-20T02:49:24;99931.84;;;20.68;76.07
71857;BME280;63344;46.980;28.882;2023-07-20T02:51:55;99925.59;;;20.67;76.34
71857;BME280;63344;46.980;28.882;2023-07-20T02:54:22;99929.28;;;20.66;76.70
71857;BME280;63344;46.980;28.882;2023-07-20T02:56:49;99931.72;;;20.69;76.54
71857;BME280;63344;46.980;28.882;2023-07-20T02:59:16;99926.59;;;20.66;76.29
71857;BME280;63344;46.980;28.882;2023-07-20T03:01:44;99943.78;;;20.75;76.27
71857;BME280;63344;46.980;28.882;2023-07-20T03:04:11;99943.22;;;20.72;76.65
71857;BME280;63344;46.980;28.882;2023-07-20T03:06:39;99934.69;;;20.76;76.33
71857;BME280;63344;46.980;28.882;2023-07-20T03:09:07;99933.28;;;20.82;76.25
71857;BME280;63344;46.980;28.882;2023-07-20T03:11:34;99933.69;;;20.87;76.51
71857;BME280;63344;46.980;28.882;2023-07-20T03:14:02;99933.53;;;20.98;76.55
71857;BME280;63344;46.980;28.882;2023-07-20T03:16:29;99948.16;;;21.25;76.45
71857;BME280;63344;46.980;28.882;2023-07-20T03:19:00;99944.28;;;21.47;76.95
71857;BME280;63344;46.980;28.882;2023-07-20T03:21:28;99953.00;;;21.78;76.76
71857;BME280;63344;46.980;28.882;2023-07-20T03:23:55;99953.00;;;22.06;76.99
71857;BME280;63344;46.980;28.882;2023-07-20T03:26:23;99945.66;;;22.26;75.65
71857;BME280;63344;46.980;28.882;2023-07-20T03:28:51;99952.59;;;22.56;74.31
71857;BME280;63344;46.980;28.882;2023-07-20T03:31:18;99952.66;;;22.82;73.94
71857;BME280;63344;46.980;28.882;2023-07-20T03:33:45;99948.50;;;23.06;73.36
71857;BME280;63344;46.980;28.882;2023-07-20T03:36:14;99945.13;;;23.30;72.44
71857;BME280;63344;46.980;28.882;2023-07-20T03:38:41;99939.09;;;23.44;71.70
71857;BME280;63344;46.980;28.882;2023-07-20T03:41:08;99922.47;;;23.65;70.89
71857;BME280;63344;46.980;28.882;2023-07-20T03:43:36;99919.56;;;23.85;70.45
71857;BME280;63344;46.980;28.882;2023-07-20T03:46:03;99920.81;;;24.07;70.20
71857;BME280;63344;46.980;28.882;2023-07-20T03:48:34;99907.66;;;24.20;69.62
71857;BME280;63344;46.980;28.882;2023-07-20T03:51:02;99924.13;;;24.35;68.33
71857;BME280;63344;46.980;28.882;2023-07-20T03:53:29;99919.59;;;24.52;67.31
71857;BME280;63344;46.980;28.882;2023-07-20T03:55:57;99918.09;;;24.74;67.06
71857;BME280;63344;46.980;28.882;2023-07-20T03:58:24;99919.97;;;25.07;66.17
71857;BME280;63344;46.980;28.882;2023-07-20T04:00:52;99926.59;;;25.37;64.28
71857;BME280;63344;46.980;28.882;2023-07-20T04:03:20;99935.56;;;25.54;63.81
71857;BME280;63344;46.980;28.882;2023-07-20T04:05:48;99943.28;;;25.81;63.03
71857;BME280;63344;46.980;28.882;2023-07-20T04:08:15;99946.94;;;26.13;62.20
71857;BME280;63344;46.980;28.882;2023-07-20T04:10:43;99937.97;;;26.36;61.08
71857;BME280;63344;46.980;28.882;2023-07-20T04:13:11;99933.38;;;26.68;60.46
71857;BME280;63344;46.980;28.882;2023-07-20T04:15:39;99943.44;;;26.90;58.75
71857;BME280;63344;46.980;28.882;2023-07-20T04:18:06;99935.53;;;27.18;58.21
71857;BME280;63344;46.980;28.882;2023-07-20T04:20:34;99943.59;;;27.50;57.76
71857;BME280;63344;46.980;28.882;2023-07-20T04:23:01;99944.09;;;27.68;56.30
71857;BME280;63344;46.980;28.882;2023-07-20T04:25:29;99941.63;;;27.58;55.50
71857;BME280;63344;46.980;28.882;2023-07-20T04:27:57;99926.66;;;27.54;54.47
71857;BME280;63344;46.980;28.882;2023-07-20T04:30:32;99931.19;;;27.62;54.54
71857;BME280;63344;46.980;28.882;2023-07-20T04:33:01;99930.06;;;27.71;54.26
71857;BME280;63344;46.980;28.882;2023-07-20T04:35:48;99950.00;;;27.87;53.59
71857;BME280;63344;46.980;28.882;2023-07-20T04:38:20;99950.59;;;27.97;52.95
71857;BME280;63344;46.980;28.882;2023-07-20T04:40:52;99944.66;;;28.08;52.85
71857;BME280;63344;46.980;28.882;2023-07-20T04:43:20;99938.31;;;28.23;53.20
71857;BME280;63344;46.980;28.882;2023-07-20T04:45:52;99943.63;;;28.46;52.52
71857;BME280;63344;46.980;28.882;2023-07-20T04:48:22;99946.41;;;28.67;52.40
71857;BME280;63344;46.980;28.882;2023-07-20T04:50:51;99937.19;;;28.90;51.09
71857;BME280;63344;46.980;28.882;2023-07-20T04:53:22;99935.75;;;28.94;50.25
71857;BME280;63344;46.980;28.882;2023-07-20T04:55:50;99935.16;;;29.20;50.25
71857;BME280;63344;46.980;28.882;2023-07-20T04:58:20;99939.16;;;29.46;50.24
71857;BME280;63344;46.980;28.882;2023-07-20T05:00:49;99930.94;;;29.74;49.21
71857;BME280;63344;46.980;28.882;2023-07-20T05:03:16;99939.47;;;29.99;47.82
71857;BME280;63344;46.980;28.882;2023-07-20T05:05:44;99919.53;;;30.18;48.19
71857;BME280;63344;46.980;28.882;2023-07-20T05:08:15;99927.66;;;30.40;47.31
71857;BME280;63344;46.980;28.882;2023-07-20T05:10:43;99931.88;;;30.36;47.07
71857;BME280;63344;46.980;28.882;2023-07-20T05:13:11;99936.16;;;30.04;46.94
71857;BME280;63344;46.980;28.882;2023-07-20T05:15:38;99931.59;;;29.83;47.39
71857;BME280;63344;46.980;28.882;2023-07-20T05:18:05;99935.69;;;30.00;47.57
71857;BME280;63344;46.980;28.882;2023-07-20T05:20:34;99941.28;;;30.27;47.51
71857;BME280;63344;46.980;28.882;2023-07-20T05:23:02;99933.34;;;30.45;47.58
71857;BME280;63344;46.980;28.882;2023-07-20T05:25:30;99929.63;;;30.66;46.75
71857;BME280;63344;46.980;28.882;2023-07-20T05:27:58;99934.63;;;30.49;45.90
71857;BME280;63344;46.980;28.882;2023-07-20T05:30:26;99934.53;;;30.29;46.31
71857;BME280;63344;46.980;28.882;2023-07-20T05:32:53;99939.91;;;30.03;46.74
71857;BME280;63344;46.980;28.882;2023-07-20T05:35:22;99938.81;;;29.62;47.13
71857;BME280;63344;46.980;28.882;2023-07-20T05:37:49;99937.81;;;29.42;48.04
71857;BME280;63344;46.980;28.882;2023-07-20T05:40:17;99933.94;;;29.29;48.57
71857;BME280;63344;46.980;28.882;2023-07-20T05:42:48;99928.94;;;29.33;49.03
71857;BME280;63344;46.980;28.882;2023-07-20T05:45:19;99929.63;;;29.42;49.16
71857;BME280;63344;46.980;28.882;2023-07-20T05:47:47;99930.78;;;29.54;49.37
71857;BME280;63344;46.980;28.882;2023-07-20T05:50:15;99933.44;;;29.75;48.40
71857;BME280;63344;46.980;28.882;2023-07-20T05:52:43;99918.34;;;29.86;48.76
71857;BME280;63344;46.980;28.882;2023-07-20T05:55:11;99924.75;;;30.07;48.46
71857;BME280;63344;46.980;28.882;2023-07-20T05:57:38;99918.09;;;30.23;48.23
71857;BME280;63344;46.980;28.882;2023-07-20T06:00:10;99924.84;;;30.27;47.71
71857;BME280;63344;46.980;28.882;2023-07-20T06:02:41;99921.00;;;30.08;47.53
71857;BME280;63344;46.980;28.882;2023-07-20T06:05:08;99914.97;;;29.84;47.84
71857;BME280;63344;46.980;28.882;2023-07-20T06:07:41;99916.28;;;29.60;48.64
71857;BME280;63344;46.980;28.882;2023-07-20T06:10:09;99912.31;;;29.34;49.39
71857;BME280;63344;46.980;28.882;2023-07-20T06:12:36;99912.75;;;29.10;49.58
71857;BME280;63344;46.980;28.882;2023-07-20T06:15:05;99913.63;;;28.89;49.98
71857;BME280;63344;46.980;28.882;2023-07-20T06:17:33;99917.84;;;28.70;50.91
71857;BME280;63344;46.980;28.882;2023-07-20T06:20:07;99920.91;;;28.45;51.15
71857;BME280;63344;46.980;28.882;2023-07-20T06:22:35;99923.13;;;28.35;51.15
71857;BME280;63344;46.980;28.882;2023-07-20T06:25:04;99921.16;;;28.29;51.90
71857;BME280;63344;46.980;28.882;2023-07-20T06:27:32;99923.25;;;28.12;51.83
71857;BME280;63344;46.980;28.882;2023-07-20T06:29:59;99930.25;;;27.99;52.53
71857;BME280;63344;46.980;28.882;2023-07-20T06:32:27;99920.09;;;27.78;52.89
71857;BME280;63344;46.980;28.882;2023-07-20T06:34:56;99939.66;;;27.67;53.39
71857;BME280;63344;46.980;28.882;2023-07-20T06:37:23;99929.00;;;27.57;53.71
71857;BME280;63344;46.980;28.882;2023-07-20T06:39:51;99929.59;;;27.53;54.07
71857;BME280;63344;46.980;28.882;2023-07-20T06:42:22;99915.16;;;27.29;54.26
71857;BME280;63344;46.980;28.882;2023-07-20T06:44:50;99925.81;;;27.16;54.61
71857;BME280;63344;46.980;28.882;2023-07-20T06:47:17;99929.06;;;26.96;55.13
71857;BME280;63344;46.980;28.882;2023-07-20T06:49:49;99927.50;;;26.79;55.05
71857;BME280;63344;46.980;28.882;2023-07-20T06:52:17;99919.69;;;26.76;55.74
71857;BME280;63344;46.980;28.882;2023-07-20T06:54:44;99917.03;;;26.68;56.06
71857;BME280;63344;46.980;28.882;2023-07-20T06:57:12;99921.84;;;26.57;56.02
71857;BME280;63344;46.980;28.882;2023-07-20T06:59:44;99923.06;;;26.55;56.23
71857;BME280;63344;46.980;28.882;2023-07-20T07:02:17;99911.31;;;26.54;56.09
71857;BME280;63344;46.980;28.882;2023-07-20T07:04:44;99918.41;;;26.63;56.12
71857;BME280;63344;46.980;28.882;2023-07-20T07:07:14;99920.84;;;26.58;55.95
71857;BME280;63344;46.980;28.882;2023-07-20T07:09:53;99919.63;;;26.61;56.04
71857;BME280;63344;46.980;28.882;2023-07-20T07:12:21;99905.66;;;26.56;55.93
71857;BME280;63344;46.980;28.882;2023-07-20T07:14:54;99915.06;;;26.53;56.51
71857;BME280;63344;46.980;28.882;2023-07-20T07:17:31;99918.34;;;26.49;56.23
71857;BME280;63344;46.980;28.882;2023-07-20T07:20:01;99914.56;;;26.50;57.46
71857;BME280;63344;46.980;28.882;2023-07-20T07:22:30;99915.78;;;26.47;57.31
71857;BME280;63344;46.980;28.882;2023-07-20T07:24:58;99925.94;;;26.53;56.93
71857;BME280;63344;46.980;28.882;2023-07-20T07:27:25;99914.03;;;26.54;56.55
71857;BME280;63344;46.980;28.882;2023-07-20T07:29:54;99910.66;;;26.52;56.58
71857;BME280;63344;46.980;28.882;2023-07-20T07:32:24;99907.22;;;26.58;56.37
71857;BME280;63344;46.980;28.882;2023-07-20T07:34:52;99917.50;;;26.71;56.59
71857;BME280;63344;46.980;28.882;2023-07-20T07:37:21;99904.31;;;26.83;56.42
71857;BME280;63344;46.980;28.882;2023-07-20T07:39:53;99899.44;;;26.93;55.83
71857;BME280;63344;46.980;28.882;2023-07-20T07:42:22;99902.31;;;27.15;55.26
71857;BME280;63344;46.980;28.882;2023-07-20T07:44:53;99902.84;;;27.33;55.51
71857;BME280;63344;46.980;28.882;2023-07-20T07:47:20;99905.47;;;27.27;53.85
71857;BME280;63344;46.980;28.882;2023-07-20T07:49:49;99896.63;;;27.25;54.32
71857;BME280;63344;46.980;28.882;2023-07-20T07:52:18;99895.59;;;27.26;54.61
71857;BME280;63344;46.980;28.882;2023-07-20T07:54:45;99907.47;;;27.48;54.53
71857;BME280;63344;46.980;28.882;2023-07-20T07:57:13;99907.75;;;27.68;54.44
71857;BME280;63344;46.980;28.882;2023-07-20T07:59:42;99900.78;;;27.65;53.26
71857;BME280;63344;46.980;28.882;2023-07-20T08:02:10;99903.81;;;27.70;53.08
71857;BME280;63344;46.980;28.882;2023-07-20T08:04:37;99903.31;;;27.81;53.22
71857;BME280;63344;46.980;28.882;2023-07-20T08:07:08;99900.16;;;27.93;53.19
71857;BME280;63344;46.980;28.882;2023-07-20T08:09:37;99898.38;;;28.21;52.86
71857;BME280;63344;46.980;28.882;2023-07-20T08:12:06;99908.66;;;28.19;51.89
71857;BME280;63344;46.980;28.882;2023-07-20T08:14:33;99903.41;;;28.18;52.09
71857;BME280;63344;46.980;28.882;2023-07-20T08:17:00;99899.16;;;28.15;52.38
71857;BME280;63344;46.980;28.882;2023-07-20T08:19:28;99900.56;;;28.26;52.19
71857;BME280;63344;46.980;28.882;2023-07-20T08:21:57;99896.09;;;28.40;51.80
71857;BME280;63344;46.980;28.882;2023-07-20T08:24:24;99906.59;;;28.58;50.36
71857;BME280;63344;46.980;28.882;2023-07-20T08:26:52;99900.69;;;28.54;48.21
71857;BME280;63344;46.980;28.882;2023-07-20T08:29:24;99909.09;;;28.38;49.69
71857;BME280;63344;46.980;28.882;2023-07-20T08:31:56;99901.91;;;28.37;50.18
71857;BME280;63344;46.980;28.882;2023-07-20T08:34:24;99897.25;;;28.95;49.68
71857;BME280;63344;46.980;28.882;2023-07-20T08:36:58;99899.47;;;30.05;47.73
71857;BME280;63344;46.980;28.882;2023-07-20T08:39:26;99903.47;;;30.77;44.31
71857;BME280;63344;46.980;28.882;2023-07-20T08:41:56;99903.94;;;31.07;43.02
71857;BME280;63344;46.980;28.882;2023-07-20T08:44:28;99895.06;;;31.25;42.83
71857;BME280;63344;46.980;28.882;2023-07-20T08:46:56;99908.31;;;31.68;42.74
71857;BME280;63344;46.980;28.882;2023-07-20T08:49:25;99910.84;;;32.28;41.54
71857;BME280;63344;46.980;28.882;2023-07-20T08:51:53;99899.94;;;32.85;41.86
71857;BME280;63344;46.980;28.882;2023-07-20T08:54:21;99903.72;;;33.16;40.65
71857;BME280;63344;46.980;28.882;2023-07-20T08:56:51;99912.44;;;33.57;40.09
71857;BME280;63344;46.980;28.882;2023-07-20T08:59:19;99914.81;;;34.27;39.81
71857;BME280;63344;46.980;28.882;2023-07-20T09:01:51;99920.16;;;34.70;37.82
71857;BME280;63344;46.980;28.882;2023-07-20T09:04:22;99915.78;;;34.63;36.29
71857;BME280;63344;46.980;28.882;2023-07-20T09:07:07;99913.03;;;35.05;36.20
71857;BME280;63344;46.980;28.882;2023-07-20T09:09:40;99922.63;;;35.97;35.89
71857;BME280;63344;46.980;28.882;2023-07-20T09:12:15;99925.38;;;36.20;33.80
71857;BME280;63344;46.980;28.882;2023-07-20T09:14:45;99932.34;;;36.52;33.64
71857;BME280;63344;46.980;28.882;2023-07-20T09:17:26;99916.91;;;36.56;31.92
71857;BME280;63344;46.980;28.882;2023-07-20T09:19:54;99919.44;;;36.57;32.41
71857;BME280;63344;46.980;28.882;2023-07-20T09:22:22;99923.03;;;37.03;32.20
71857;BME280;63344;46.980;28.882;2023-07-20T09:24:52;99925.38;;;37.45;32.04
71857;BME280;63344;46.980;28.882;2023-07-20T09:27:20;99917.53;;;37.98;30.34
71857;BME280;63344;46.980;28.882;2023-07-20T09:29:49;99916.38;;;38.16;29.45
71857;BME280;63344;46.980;28.882;2023-07-20T09:32:21;99921.88;;;38.33;29.45
71857;BME280;63344;46.980;28.882;2023-07-20T09:34:52;99915.91;;;38.47;28.48
71857;BME280;63344;46.980;28.882;2023-07-20T09:37:20;99903.06;;;37.74;28.83
71857;BME280;63344;46.980;28.882;2023-07-20T09:39:51;99907.19;;;38.11;30.01
71857;BME280;63344;46.980;28.882;2023-07-20T09:42:22;99889.91;;;38.53;28.31
71857;BME280;63344;46.980;28.882;2023-07-20T09:44:55;99905.75;;;38.84;27.96
71857;BME280;63344;46.980;28.882;2023-07-20T09:47:23;99892.47;;;38.92;28.01
71857;BME280;63344;46.980;28.882;2023-07-20T09:50:00;99911.41;;;39.32;27.41
71857;BME280;63344;46.980;28.882;2023-07-20T09:52:32;99896.94;;;39.73;27.21
71857;BME280;63344;46.980;28.882;2023-07-20T09:55:05;99906.34;;;40.30;26.53
71857;BME280;63344;46.980;28.882;2023-07-20T09:57:33;99902.59;;;39.88;25.72
71857;BME280;63344;46.980;28.882;2023-07-20T10:00:07;99898.06;;;38.97;26.29
71857;BME280;63344;46.980;28.882;2023-07-20T10:02:49;99901.72;;;38.43;27.44
71857;BME280;63344;46.980;28.882;2023-07-20T10:05:19;99905.38;;;38.49;27.84
71857;BME280;63344;46.980;28.882;2023-07-20T10:07:49;99903.94;;;38.19;28.45
71857;BME280;63344;46.980;28.882;2023-07-20T10:10:41;99901.13;;;37.36;29.52
71857;BME280;63344;46.980;28.882;2023-07-20T10:13:17;99898.00;;;36.64;29.74
71857;BME280;63344;46.980;28.882;2023-07-20T10:15:54;99899.69;;;36.65;30.58
71857;BME280;63344;46.980;28.882;2023-07-20T10:18:41;99904.41;;;36.24;30.50
71857;BME280;63344;46.980;28.882;2023-07-20T10:21:09;99894.56;;;36.74;29.69
71857;BME280;63344;46.980;28.882;2023-07-20T10:23:40;99891.91;;;36.79;29.76
71857;BME280;63344;46.980;28.882;2023-07-20T10:26:19;99887.72;;;37.27;28.81
71857;BME280;63344;46.980;28.882;2023-07-20T10:28:47;99894.94;;;36.49;30.03
71857;BME280;63344;46.980;28.882;2023-07-20T10:31:17;99890.50;;;35.55;31.24
71857;BME280;63344;46.980;28.882;2023-07-20T10:33:46;99891.22;;;35.39;32.50
71857;BME280;63344;46.980;28.882;2023-07-20T10:36:16;99893.00;;;35.57;32.06
71857;BME280;63344;46.980;28.882;2023-07-20T10:38:58;99891.19;;;35.62;31.97
71857;BME280;63344;46.980;28.882;2023-07-20T10:41:33;99893.44;;;34.71;33.00
71857;BME280;63344;46.980;28.882;2023-07-20T10:44:05;99883.66;;;34.26;33.63
71857;BME280;63344;46.980;28.882;2023-07-20T10:46:45;99883.03;;;33.76;33.92
71857;BME280;63344;46.980;28.882;2023-07-20T10:49:14;99888.16;;;33.47;35.39
71857;BME280;63344;46.980;28.882;2023-07-20T10:51:48;99888.97;;;33.29;35.43
71857;BME280;63344;46.980;28.882;2023-07-20T10:54:33;99878.34;;;33.14;36.22
71857;BME280;63344;46.980;28.882;2023-07-20T10:57:22;99864.63;;;32.50;35.77
71857;BME280;63344;46.980;28.882;2023-07-20T10:59:51;99872.06;;;32.05;37.26
71857;BME280;63344;46.980;28.882;2023-07-20T11:02:19;99863.63;;;32.00;37.47
71857;BME280;63344;46.980;28.882;2023-07-20T11:04:49;99857.97;;;31.88;37.47
71857;BME280;63344;46.980;28.882;2023-07-20T11:07:36;99861.06;;;32.05;37.71
71857;BME280;63344;46.980;28.882;2023-07-20T11:10:14;99857.69;;;32.03;38.01
71857;BME280;63344;46.980;28.882;2023-07-20T11:13:17;99858.44;;;31.78;38.17
71857;BME280;63344;46.980;28.882;2023-07-20T11:18:26;99843.53;;;31.54;38.35
71857;BME280;63344;46.980;28.882;2023-07-20T11:20:54;99841.41;;;31.56;38.82
71857;BME280;63344;46.980;28.882;2023-07-20T11:23:22;99835.69;;;31.44;38.33
71857;BME280;63344;46.980;28.882;2023-07-20T11:25:50;99837.22;;;31.33;38.91
71857;BME280;63344;46.980;28.882;2023-07-20T11:28:23;99828.75;;;31.42;38.88
71857;BME280;63344;46.980;28.882;2023-07-20T11:30:55;99818.63;;;31.29;38.97
71857;BME280;63344;46.980;28.882;2023-07-20T11:33:42;99819.09;;;31.12;39.43
71857;BME280;63344;46.980;28.882;2023-07-20T11:36:23;99818.91;;;31.01;39.36
71857;BME280;63344;46.980;28.882;2023-07-20T11:38:59;99807.75;;;30.95;38.92
71857;BME280;63344;46.980;28.882;2023-07-20T11:41:28;99801.78;;;30.85;39.58
71857;BME280;63344;46.980;28.882;2023-07-20T11:43:57;99803.50;;;30.93;39.28
71857;BME280;63344;46.980;28.882;2023-07-20T11:46:25;99810.25;;;31.04;39.52
71857;BME280;63344;46.980;28.882;2023-07-20T11:49:00;99787.25;;;30.98;39.43
71857;BME280;63344;46.980;28.882;2023-07-20T11:51:29;99788.25;;;31.17;39.31
71857;BME280;63344;46.980;28.882;2023-07-20T11:53:57;99782.97;;;31.22;38.89
71857;BME280;63344;46.980;28.882;2023-07-20T11:56:26;99779.41;;;31.15;37.81
71857;BME280;63344;46.980;28.882;2023-07-20T11:58:55;99784.94;;;31.02;38.40
71857;BME280;63344;46.980;28.882;2023-07-20T12:01:26;99771.41;;;31.07;39.41
71857;BME280;63344;46.980;28.882;2023-07-20T12:04:04;99773.53;;;31.05;37.99
71857;BME280;63344;46.980;28.882;2023-07-20T12:06:36;99776.50;;;30.96;37.89
71857;BME280;63344;46.980;28.882;2023-07-20T12:09:14;99780.25;;;31.09;38.46
71857;BME280;63344;46.980;28.882;2023-07-20T12:11:45;99777.72;;;31.14;36.78
71857;BME280;63344;46.980;28.882;2023-07-20T12:14:13;99790.56;;;31.27;37.25
71857;BME280;63344;46.980;28.882;2023-07-20T12:16:43;99753.63;;;31.23;37.21
71857;BME280;63344;46.980;28.882;2023-07-20T12:19:12;99787.81;;;31.27;36.44
71857;BME280;63344;46.980;28.882;2023-07-20T12:21:41;99769.22;;;31.35;37.31
71857;BME280;63344;46.980;28.882;2023-07-20T12:24:11;99756.75;;;31.40;37.50
71857;BME280;63344;46.980;28.882;2023-07-20T12:26:38;99768.78;;;31.45;37.07
71857;BME280;63344;46.980;28.882;2023-07-20T12:29:07;99760.38;;;31.27;37.21
71857;BME280;63344;46.980;28.882;2023-07-20T12:31:36;99766.94;;;31.19;37.62
71857;BME280;63344;46.980;28.882;2023-07-20T12:34:05;99754.03;;;31.33;37.24
71857;BME280;63344;46.980;28.882;2023-07-20T12:36:34;99764.16;;;31.32;35.84
71857;BME280;63344;46.980;28.882;2023-07-20T12:39:31;99742.00;;;31.27;36.21
71857;BME280;63344;46.980;28.882;2023-07-20T12:41:59;99744.94;;;31.32;36.21
71857;BME280;63344;46.980;28.882;2023-07-20T12:44:27;99746.44;;;31.28;36.12
71857;BME280;63344;46.980;28.882;2023-07-20T12:47:10;99742.56;;;31.49;36.06
71857;BME280;63344;46.980;28.882;2023-07-20T12:49:37;99753.66;;;31.74;36.30
71857;BME280;63344;46.980;28.882;2023-07-20T12:52:06;99734.63;;;31.80;36.66
71857;BME280;63344;46.980;28.882;2023-07-20T12:54:35;99754.63;;;31.93;36.27
71857;BME280;63344;46.980;28.882;2023-07-20T12:57:03;99749.09;;;32.00;35.66
71857;BME280;63344;46.980;28.882;2023-07-20T12:59:33;99758.34;;;31.99;35.68
71857;BME280;63344;46.980;28.882;2023-07-20T13:02:02;99754.13;;;32.03;35.87
71857;BME280;63344;46.980;28.882;2023-07-20T13:04:33;99746.13;;;32.02;35.90
71857;BME280;63344;46.980;28.882;2023-07-20T13:07:16;99747.00;;;31.89;34.95
71857;BME280;63344;46.980;28.882;2023-07-20T13:09:54;99755.72;;;31.86;35.71
71857;BME280;63344;46.980;28.882;2023-07-20T13:12:22;99751.47;;;31.90;36.02
71857;BME280;63344;46.980;28.882;2023-07-20T13:14:52;99748.88;;;31.95;35.58
71857;BME280;63344;46.980;28.882;2023-07-20T13:17:19;99753.31;;;31.96;35.36
71857;BME280;63344;46.980;28.882;2023-07-20T13:19:47;99752.50;;;31.95;35.53